createdAt,value
2019-06-15T00:00:08.045Z,100772.00
2019-06-15T00:02:40.543Z,100756.67
2019-06-15T00:05:18.455Z,100758.91
2019-06-15T00:07:50.343Z,100769.21
2019-06-15T00:10:21.573Z,100779.05
2019-06-15T00:12:52.671Z,100775.75
2019-06-15T00:15:24.644Z,100772.31
2019-06-15T00:17:57.601Z,100772.95
2019-06-15T00:20:28.536Z,100764.05
2019-06-15T00:22:59.552Z,100758.28
2019-06-15T00:25:30.488Z,100753.84
2019-06-15T00:28:01.417Z,100757.07
2019-06-15T00:30:39.433Z,100756.58
2019-06-15T00:33:14.345Z,100753.47
2019-06-15T00:35:45.248Z,100772.52
2019-06-15T00:38:16.168Z,100784.36
2019-06-15T00:40:49.406Z,100794.38
2019-06-15T00:43:20.639Z,100786.25
2019-06-15T00:45:52.522Z,100757.59
2019-06-15T00:48:24.463Z,100721.78
2019-06-15T00:50:57.409Z,100717.03
2019-06-15T00:53:28.305Z,100714.61
2019-06-15T00:55:59.219Z,100721.43
2019-06-15T00:58:30.102Z,100723.23
2019-06-15T01:01:01.050Z,100721.02
2019-06-15T01:03:32.001Z,100709.88
2019-06-15T01:06:02.907Z,100707.16
2019-06-15T01:08:34.783Z,100695.02
2019-06-15T01:11:05.673Z,100680.59
2019-06-15T01:13:36.604Z,100673.58
2019-06-15T01:16:10.534Z,100653.45
2019-06-15T01:18:48.738Z,100624.80
2019-06-15T01:21:23.808Z,100625.44
2019-06-15T01:23:54.867Z,100610.12
2019-06-15T01:26:25.764Z,100606.37
2019-06-15T01:29:00.630Z,100613.13
2019-06-15T01:31:31.543Z,100616.20
2019-06-15T01:34:02.527Z,100615.91
2019-06-15T01:36:41.536Z,100618.14
2019-06-15T01:39:16.674Z,100617.66
2019-06-15T01:41:47.571Z,100619.67
2019-06-15T01:44:18.522Z,100619.73
2019-06-15T01:46:53.553Z,100622.09
2019-06-15T01:49:30.952Z,100629.41
2019-06-15T01:52:06.857Z,100636.96
2019-06-15T01:54:40.947Z,100635.88
2019-06-15T01:57:11.858Z,100643.64
2019-06-15T01:59:47.864Z,100644.70
2019-06-15T02:02:18.787Z,100646.06
2019-06-15T02:04:49.687Z,100642.34
2019-06-15T02:07:20.566Z,100644.05
2019-06-15T02:09:51.556Z,100655.06
2019-06-15T02:12:22.603Z,100656.84
2019-06-15T02:14:57.997Z,100659.52
2019-06-15T02:17:35.962Z,100653.04
2019-06-15T02:20:06.977Z,100662.59
2019-06-15T02:22:38.005Z,100675.52
2019-06-15T02:25:09.005Z,100685.63
2019-06-15T02:27:40.856Z,100680.70
2019-06-15T02:30:11.796Z,100687.15
2019-06-15T02:32:42.694Z,100677.82
2019-06-15T02:35:16.788Z,100672.05
2019-06-15T02:37:59.195Z,100665.88
2019-06-15T02:40:30.208Z,100663.52
2019-06-15T02:43:03.206Z,100649.51
2019-06-15T02:45:36.280Z,100646.71
2019-06-15T02:48:09.260Z,100655.62
2019-06-15T02:50:42.272Z,100654.11
2019-06-15T02:53:13.171Z,100661.31
2019-06-15T02:55:50.454Z,100654.77
2019-06-15T02:58:16.781Z,100641.98
2019-06-15T03:01:03.338Z,100644.06
2019-06-15T03:03:41.420Z,100648.31
2019-06-15T03:06:12.408Z,100637.40
2019-06-15T03:08:43.327Z,100635.88
2019-06-15T03:11:14.371Z,100622.09
2019-06-15T03:13:45.736Z,100612.41
2019-06-15T03:16:16.784Z,100600.97
2019-06-15T03:18:47.884Z,100587.05
2019-06-15T03:21:18.801Z,100560.62
2019-06-15T03:23:49.754Z,100543.39
2019-06-15T03:26:20.718Z,100534.44
2019-06-15T03:28:51.608Z,100546.13
2019-06-15T03:31:22.551Z,100558.28
2019-06-15T03:33:53.507Z,100575.14
2019-06-15T03:36:24.437Z,100588.23
2019-06-15T03:38:55.261Z,100597.47
2019-06-15T03:41:26.231Z,100602.27
2019-06-15T03:43:57.170Z,100593.44
2019-06-15T03:46:33.843Z,100594.30
2019-06-15T03:49:04.866Z,100596.38
2019-06-15T03:51:36.789Z,100584.26
2019-06-15T03:54:08.665Z,100563.30
2019-06-15T03:56:43.476Z,100575.70
2019-06-15T03:59:15.513Z,100594.67
2019-06-15T04:01:49.500Z,100636.69
2019-06-15T04:04:20.444Z,100657.21
2019-06-15T04:06:51.391Z,100676.23
2019-06-15T04:09:25.481Z,100702.91
2019-06-15T04:12:01.161Z,100716.62
2019-06-15T04:14:32.127Z,100715.14
2019-06-15T04:17:03.146Z,100690.59
2019-06-15T04:19:34.077Z,100699.34
2019-06-15T04:22:10.882Z,100710.90
2019-06-15T04:24:41.833Z,100709.95
2019-06-15T04:27:18.001Z,100701.62
2019-06-15T04:29:54.953Z,100696.88
2019-06-15T04:32:25.967Z,100700.21
2019-06-15T04:34:57.451Z,100698.84
2019-06-15T04:37:28.515Z,100689.52
2019-06-15T04:40:08.488Z,100696.34
2019-06-15T04:42:40.369Z,100695.63
2019-06-15T04:45:11.367Z,100707.38
2019-06-15T04:47:48.187Z,100709.72
2019-06-15T04:50:19.234Z,100727.48
2019-06-15T04:52:52.116Z,100730.44
2019-06-15T04:55:25.002Z,100726.95
2019-06-15T04:57:55.990Z,100729.45
2019-06-15T05:00:26.928Z,100720.98
2019-06-15T05:03:03.826Z,100708.93
2019-06-15T05:05:35.951Z,100705.22
2019-06-15T05:08:07.804Z,100709.88
2019-06-15T05:10:38.730Z,100709.27
2019-06-15T05:13:21.067Z,100718.77
2019-06-15T05:15:51.985Z,100734.19
2019-06-15T05:18:22.861Z,100740.28
2019-06-15T05:20:59.906Z,100727.29
2019-06-15T05:23:30.867Z,100719.30
2019-06-15T05:26:07.044Z,100711.30
2019-06-15T05:28:38.997Z,100716.23
2019-06-15T05:31:09.843Z,100724.19
2019-06-15T05:33:40.838Z,100716.67
2019-06-15T05:36:11.744Z,100714.41
2019-06-15T05:38:42.670Z,100716.91
2019-06-15T05:41:15.816Z,100702.23
2019-06-15T05:43:47.757Z,100713.59
2019-06-15T05:46:24.756Z,100708.14
2019-06-15T05:48:55.685Z,100711.54
2019-06-15T05:51:31.727Z,100726.83
2019-06-15T05:54:02.827Z,100731.05
2019-06-15T05:56:33.750Z,100732.07
2019-06-15T05:59:04.640Z,100736.16
2019-06-15T06:01:37.502Z,100742.94
2019-06-15T06:04:09.445Z,100746.63
2019-06-15T06:06:50.154Z,100749.50
2019-06-15T06:09:24.303Z,100751.20
2019-06-15T06:11:55.280Z,100752.31
2019-06-15T06:14:26.324Z,100749.58
2019-06-15T06:16:58.254Z,100749.93
2019-06-15T06:19:29.167Z,100745.20
2019-06-15T06:22:00.156Z,100745.70
2019-06-15T06:24:32.114Z,100748.30
2019-06-15T06:27:06.607Z,100748.39
2019-06-15T06:29:37.519Z,100749.61
2019-06-15T06:32:10.469Z,100750.97
2019-06-15T06:34:42.273Z,100745.98
2019-06-15T06:37:13.225Z,100756.42
2019-06-15T06:39:50.080Z,100762.75
2019-06-15T06:42:21.190Z,100765.41
2019-06-15T06:44:52.989Z,100775.36
2019-06-15T06:47:23.901Z,100781.91
2019-06-15T06:49:55.741Z,100782.00
2019-06-15T06:52:33.057Z,100777.59
2019-06-15T06:55:10.016Z,100779.77
2019-06-15T06:57:57.128Z,100778.81
2019-06-15T07:00:27.285Z,100773.27
2019-06-15T07:03:00.188Z,100778.81
2019-06-15T07:05:31.210Z,100779.25
2019-06-15T07:08:02.026Z,100784.09
2019-06-15T07:10:33.929Z,100780.47
2019-06-15T07:13:04.862Z,100788.67
2019-06-15T07:15:35.833Z,100787.36
2019-06-15T07:18:06.785Z,100792.26
2019-06-15T07:20:38.816Z,100794.98
2019-06-15T07:23:18.944Z,100792.48
2019-06-15T07:25:49.824Z,100795.56
2019-06-15T07:28:28.116Z,100796.97
2019-06-15T07:30:59.069Z,100794.97
2019-06-15T07:33:29.996Z,100789.94
2019-06-15T07:36:01.030Z,100785.16
2019-06-15T07:38:32.975Z,100779.36
2019-06-15T07:41:04.081Z,100782.59
2019-06-15T07:43:38.210Z,100782.59
2019-06-15T07:46:10.054Z,100780.38
2019-06-15T07:48:42.067Z,100790.98
2019-06-15T07:51:14.390Z,100790.83
2019-06-15T07:53:52.371Z,100801.12
2019-06-15T07:56:28.163Z,100798.23
2019-06-15T07:59:25.301Z,100794.38
2019-06-15T08:02:00.682Z,100790.34
2019-06-15T08:04:31.672Z,100789.05
2019-06-15T08:07:06.387Z,100790.32
2019-06-15T08:09:37.341Z,100798.02
2019-06-15T08:12:19.377Z,100798.36
2019-06-15T08:15:02.486Z,100807.65
2019-06-15T08:17:45.824Z,100810.47
2019-06-15T08:20:18.767Z,100816.98
2019-06-15T08:22:53.214Z,100816.19
2019-06-15T08:25:32.290Z,100824.97
2019-06-15T08:28:03.209Z,100835.11
2019-06-15T08:30:42.682Z,100836.91
2019-06-15T08:33:19.583Z,100839.36
2019-06-15T08:35:50.491Z,100841.64
2019-06-15T08:38:21.450Z,100849.12
2019-06-15T08:41:03.373Z,100844.53
2019-06-15T08:43:39.001Z,100843.66
2019-06-15T08:46:09.959Z,100846.27
2019-06-15T08:48:45.057Z,100852.99
2019-06-15T08:51:22.706Z,100854.81
2019-06-15T08:54:00.618Z,100854.94
2019-06-15T08:56:31.582Z,100858.53
2019-06-15T08:59:02.509Z,100870.10
2019-06-15T09:01:35.431Z,100875.72
2019-06-15T09:04:07.382Z,100880.50
2019-06-15T09:06:39.419Z,100883.12
2019-06-15T09:09:10.421Z,100893.73
2019-06-15T09:11:41.381Z,100901.03
2019-06-15T09:14:12.325Z,100909.62
2019-06-15T09:16:47.621Z,100913.34
2019-06-15T09:19:21.606Z,100919.41
2019-06-15T09:21:52.602Z,100920.77
2019-06-15T09:24:23.430Z,100916.45
2019-06-15T09:26:54.253Z,100921.92
2019-06-15T09:29:25.079Z,100922.07
2019-06-15T09:31:56.031Z,100931.27
2019-06-15T09:34:26.909Z,100941.55
2019-06-15T09:37:05.035Z,100938.77
2019-06-15T09:39:36.013Z,100939.55
2019-06-15T09:42:06.874Z,100947.98
2019-06-15T09:44:38.854Z,100951.63
2019-06-15T09:47:11.812Z,100955.28
2019-06-15T09:49:42.999Z,100970.47
2019-06-15T09:52:15.418Z,100979.45
2019-06-15T09:54:46.394Z,100981.52
2019-06-15T09:57:17.473Z,100979.21
2019-06-15T09:59:48.447Z,100976.81
2019-06-15T10:02:19.398Z,100987.00
2019-06-15T10:04:50.298Z,101002.08
2019-06-15T10:07:21.213Z,101004.58
2019-06-15T10:09:52.115Z,101007.80
2019-06-15T10:12:23.097Z,101000.58
2019-06-15T10:14:54.004Z,101011.53
2019-06-15T10:17:35.436Z,101014.98
2019-06-15T10:20:06.741Z,101008.89
2019-06-15T10:22:37.937Z,101019.00
2019-06-15T10:25:09.334Z,101024.45
2019-06-15T10:27:40.395Z,101029.53
2019-06-15T10:30:11.650Z,101027.05
2019-06-15T10:32:48.594Z,101045.52
2019-06-15T10:35:28.407Z,101043.55
2019-06-15T10:37:59.287Z,101044.36
2019-06-15T10:40:30.152Z,101042.84
2019-06-15T10:43:01.089Z,101051.20
2019-06-15T10:45:32.014Z,101059.47
2019-06-15T10:48:03.948Z,101069.22
2019-06-15T10:50:34.882Z,101066.64
2019-06-15T10:53:05.907Z,101065.61
2019-06-15T10:55:36.949Z,101074.75
2019-06-15T10:58:07.988Z,101074.73
2019-06-15T11:00:38.802Z,101078.27
2019-06-15T11:03:09.694Z,101084.67
2019-06-15T11:05:49.862Z,101082.30
2019-06-15T11:08:20.714Z,101081.65
2019-06-15T11:11:21.798Z,101092.54
2019-06-15T11:13:52.808Z,101095.03
2019-06-15T11:16:23.688Z,101100.58
2019-06-15T11:18:54.652Z,101104.19
2019-06-15T11:21:27.492Z,101117.22
2019-06-15T11:23:58.343Z,101110.78
2019-06-15T11:26:29.273Z,101119.12
2019-06-15T11:29:00.231Z,101117.47
2019-06-15T11:31:38.054Z,101127.92
2019-06-15T11:34:09.978Z,101125.69
2019-06-15T11:36:40.914Z,101129.23
2019-06-15T11:39:11.872Z,101131.50
2019-06-15T11:41:43.755Z,101130.28
2019-06-15T11:44:19.133Z,101130.46
2019-06-15T11:46:50.183Z,101145.73
2019-06-15T11:49:22.079Z,101147.21
2019-06-15T11:51:52.940Z,101145.78
2019-06-15T11:54:23.701Z,101142.78
2019-06-15T11:56:54.563Z,101149.45
2019-06-15T11:59:26.470Z,101151.53
2019-06-15T12:01:57.391Z,101156.45
2019-06-15T12:04:28.273Z,101153.72
2019-06-15T12:06:59.205Z,101161.28
2019-06-15T12:09:30.163Z,101163.37
2019-06-15T12:12:01.221Z,101165.88
2019-06-15T12:14:32.114Z,101162.61
2019-06-15T12:17:04.049Z,101158.45
2019-06-15T12:19:40.680Z,101162.67
2019-06-15T12:22:11.521Z,101167.10
2019-06-15T12:24:44.423Z,101169.47
2019-06-15T12:27:15.306Z,101169.94
2019-06-15T12:29:46.117Z,101178.56
2019-06-15T12:32:19.067Z,101173.19
2019-06-15T12:34:50.016Z,101172.20
2019-06-15T12:37:20.889Z,101172.16
2019-06-15T12:39:52.260Z,101169.34
2019-06-15T12:42:23.223Z,101172.31
2019-06-15T12:44:55.182Z,101168.26
2019-06-15T12:47:26.154Z,101167.55
2019-06-15T12:49:57.076Z,101168.48
2019-06-15T12:52:27.948Z,101171.54
2019-06-15T12:54:58.861Z,101171.23
2019-06-15T12:57:29.866Z,101173.68
2019-06-15T13:00:01.847Z,101176.92
2019-06-15T13:02:41.180Z,101172.53
2019-06-15T13:05:20.204Z,101177.13
2019-06-15T13:07:59.505Z,101182.00
2019-06-15T13:10:30.365Z,101187.91
2019-06-15T13:13:08.694Z,101178.70
2019-06-15T13:15:39.654Z,101176.37
2019-06-15T13:18:15.676Z,101181.17
2019-06-15T13:20:46.645Z,101176.77
2019-06-15T13:23:17.458Z,101188.53
2019-06-15T13:25:50.381Z,101193.81
2019-06-15T13:28:21.280Z,101188.16
2019-06-15T13:30:55.709Z,101199.37
2019-06-15T13:33:26.655Z,101197.08
2019-06-15T13:35:59.602Z,101203.33
2019-06-15T13:38:37.868Z,101197.69
2019-06-15T13:41:10.865Z,101205.28
2019-06-15T13:43:41.691Z,101215.17
2019-06-15T13:46:12.674Z,101203.98
2019-06-15T13:48:46.576Z,101207.81
2019-06-15T13:51:17.522Z,101201.79
2019-06-15T13:53:48.470Z,101201.25
2019-06-15T13:56:20.373Z,101198.70
2019-06-15T13:58:59.562Z,101201.19
2019-06-15T14:01:38.414Z,101200.78
2019-06-15T14:04:11.292Z,101208.80
2019-06-15T14:06:42.260Z,101206.33
2019-06-15T14:09:14.224Z,101217.14
2019-06-15T14:11:45.150Z,101218.41
2019-06-15T14:14:16.033Z,101211.81
2019-06-15T14:16:51.067Z,101206.12
2019-06-15T14:19:23.129Z,101210.59
2019-06-15T14:21:56.384Z,101219.11
2019-06-15T14:24:33.620Z,101230.40
2019-06-15T14:27:06.497Z,101228.10
2019-06-15T14:29:42.530Z,101227.11
2019-06-15T14:32:13.532Z,101224.26
2019-06-15T14:34:44.467Z,101220.05
2019-06-15T14:37:16.414Z,101218.16
2019-06-15T14:39:48.253Z,101220.95
2019-06-15T14:42:22.368Z,101216.87
2019-06-15T14:44:55.387Z,101220.95
2019-06-15T14:47:27.258Z,101218.21
2019-06-15T14:50:16.519Z,101219.97
2019-06-15T14:52:48.466Z,101218.71
2019-06-15T14:55:36.661Z,101218.18
2019-06-15T14:58:08.861Z,101212.65
2019-06-15T15:00:39.752Z,101227.99
2019-06-15T15:03:10.698Z,101233.98
2019-06-15T15:05:43.653Z,101232.06
2019-06-15T15:08:15.683Z,101231.28
2019-06-15T15:10:46.640Z,101235.59
2019-06-15T15:13:26.219Z,101233.89
2019-06-15T15:15:59.673Z,101242.12
2019-06-15T15:18:31.573Z,101238.09
2019-06-15T15:21:03.546Z,101233.02
2019-06-15T15:23:36.462Z,101243.20
2019-06-15T15:26:07.755Z,101244.30
2019-06-15T15:28:39.805Z,101243.75
2019-06-15T15:31:11.757Z,101241.46
2019-06-15T15:33:43.656Z,101236.34
2019-06-15T15:36:16.727Z,101236.02
2019-06-15T15:38:47.176Z,101228.53
2019-06-15T15:41:19.123Z,101236.05
2019-06-15T15:43:56.001Z,101227.23
2019-06-15T15:46:27.934Z,101228.36
2019-06-15T15:48:58.822Z,101237.22
2019-06-15T15:51:29.821Z,101235.02
2019-06-15T15:54:11.893Z,101237.26
2019-06-15T15:56:42.819Z,101235.02
2019-06-15T15:59:20.724Z,101242.66
2019-06-15T16:01:51.589Z,101234.22
2019-06-15T16:04:22.504Z,101238.71
2019-06-15T16:07:02.679Z,101237.14
2019-06-15T16:09:36.661Z,101233.03
2019-06-15T16:12:09.550Z,101231.41
2019-06-15T16:14:40.417Z,101229.94
2019-06-15T16:17:11.213Z,101235.10
2019-06-15T16:19:43.211Z,101229.70
2019-06-15T16:22:14.161Z,101237.88
2019-06-15T16:25:01.458Z,101242.38
2019-06-15T16:27:37.014Z,101241.00
2019-06-15T16:30:10.359Z,101238.55
2019-06-15T16:32:41.320Z,101235.27
2019-06-15T16:35:13.224Z,101228.49
2019-06-15T16:37:48.340Z,101226.94
2019-06-15T16:40:22.939Z,101226.87
2019-06-15T16:42:57.742Z,101233.64
2019-06-15T16:45:30.750Z,101231.81
2019-06-15T16:48:02.687Z,101231.39
2019-06-15T16:50:36.624Z,101219.13
2019-06-15T16:53:11.205Z,101219.00
2019-06-15T16:55:46.592Z,101219.17
2019-06-15T16:58:21.675Z,101223.24
2019-06-15T17:00:52.545Z,101230.44
2019-06-15T17:03:29.873Z,101235.10
2019-06-15T17:06:29.282Z,101236.72
2019-06-15T17:09:00.271Z,101238.26
2019-06-15T17:11:31.267Z,101235.39
2019-06-15T17:14:07.811Z,101225.28
2019-06-15T17:16:40.817Z,101225.45
2019-06-15T17:19:11.706Z,101232.81
2019-06-15T17:21:43.584Z,101234.89
2019-06-15T17:24:16.944Z,101233.23
2019-06-15T17:26:51.226Z,101224.29
2019-06-15T17:29:23.201Z,101222.58
2019-06-15T17:31:57.007Z,101222.88
2019-06-15T17:34:27.723Z,101227.11
2019-06-15T17:36:58.949Z,101230.30
2019-06-15T17:39:32.111Z,101220.04
2019-06-15T17:42:02.974Z,101227.90
2019-06-15T17:44:33.945Z,101217.30
2019-06-15T17:47:10.928Z,101221.83
2019-06-15T17:49:41.826Z,101222.16
2019-06-15T17:52:12.675Z,101226.03
2019-06-15T17:54:43.676Z,101220.88
2019-06-15T17:57:14.653Z,101218.18
2019-06-15T17:59:47.022Z,101212.31
2019-06-15T18:02:18.201Z,101217.43
2019-06-15T18:04:49.149Z,101220.17
2019-06-15T18:07:20.063Z,101222.66
2019-06-15T18:09:52.699Z,101218.18
2019-06-15T18:12:23.547Z,101216.30
2019-06-15T18:14:56.673Z,101214.02
2019-06-15T18:17:27.308Z,101215.05
2019-06-15T18:19:58.207Z,101211.23
2019-06-15T18:22:30.270Z,101216.72
2019-06-15T18:25:01.852Z,101225.62
2019-06-15T18:27:32.724Z,101225.94
2019-06-15T18:30:06.388Z,101222.08
2019-06-15T18:32:37.963Z,101223.40
2019-06-15T18:35:09.300Z,101223.40
2019-06-15T18:37:40.284Z,101228.17
2019-06-15T18:40:16.046Z,101225.73
2019-06-15T18:42:46.681Z,101223.14
2019-06-15T18:45:18.229Z,101221.94
2019-06-15T18:47:50.085Z,101227.55
2019-06-15T18:50:34.064Z,101223.59
2019-06-15T18:53:07.284Z,101228.38
2019-06-15T18:55:39.039Z,101234.14
2019-06-15T18:58:11.119Z,101233.75
2019-06-15T19:00:42.393Z,101228.40
2019-06-15T19:03:16.554Z,101235.62
2019-06-15T19:05:47.885Z,101235.41
2019-06-15T19:08:19.880Z,101231.91
2019-06-15T19:10:56.224Z,101228.92
2019-06-15T19:13:28.447Z,101233.69
2019-06-15T19:16:00.176Z,101239.63
2019-06-15T19:18:37.735Z,101238.78
2019-06-15T19:21:09.484Z,101241.31
2019-06-15T19:23:40.934Z,101241.09
2019-06-15T19:26:13.240Z,101228.39
2019-06-15T19:28:45.936Z,101233.37
2019-06-15T19:31:16.847Z,101241.91
2019-06-15T19:33:47.795Z,101242.85
2019-06-15T19:36:23.480Z,101245.81
2019-06-15T19:38:57.011Z,101244.11
2019-06-15T19:41:28.497Z,101250.34
2019-06-15T19:43:59.759Z,101255.31
2019-06-15T19:46:30.828Z,101260.10
2019-06-15T19:49:01.798Z,101256.70
2019-06-15T19:51:32.621Z,101268.78
2019-06-15T19:54:03.580Z,101267.91
2019-06-15T19:56:37.019Z,101271.00
2019-06-15T19:59:09.210Z,101266.52
2019-06-15T20:01:41.039Z,101278.72
2019-06-15T20:04:12.950Z,101284.52
2019-06-15T20:06:45.936Z,101276.00
2019-06-15T20:09:16.860Z,101282.74
2019-06-15T20:11:47.721Z,101288.63
2019-06-15T20:14:19.995Z,101288.80
2019-06-15T20:16:53.214Z,101302.49
2019-06-15T20:19:26.585Z,101297.10
2019-06-15T20:22:00.632Z,101290.81
2019-06-15T20:24:30.301Z,101285.02
2019-06-15T20:27:01.371Z,101281.86
2019-06-15T20:29:32.362Z,101286.02
2019-06-15T20:32:06.890Z,101294.61
2019-06-15T20:34:38.351Z,101297.59
2019-06-15T20:37:09.494Z,101306.18
2019-06-15T20:39:41.816Z,101319.25
2019-06-15T20:42:13.205Z,101323.98
2019-06-15T20:44:46.339Z,101327.14
2019-06-15T20:47:21.925Z,101335.23
2019-06-15T20:49:52.841Z,101333.02
2019-06-15T20:52:23.706Z,101334.84
2019-06-15T20:54:56.951Z,101330.30
2019-06-15T20:57:32.279Z,101338.48
2019-06-15T21:00:06.046Z,101336.25
2019-06-15T21:02:36.532Z,101337.02
2019-06-15T21:05:08.878Z,101334.77
2019-06-15T21:07:39.901Z,101330.30
2019-06-15T21:10:11.945Z,101334.28
2019-06-15T21:12:42.854Z,101343.31
2019-06-15T21:15:14.373Z,101342.61
2019-06-15T21:17:51.124Z,101338.48
2019-06-15T21:20:23.041Z,101343.10
2019-06-15T21:22:53.977Z,101354.27
2019-06-15T21:25:27.991Z,101353.41
2019-06-15T21:27:59.970Z,101357.12
2019-06-15T21:30:30.902Z,101370.67
2019-06-15T21:33:02.075Z,101380.95
2019-06-15T21:35:47.835Z,101379.13
2019-06-15T21:38:06.518Z,101378.25
2019-06-15T21:40:39.642Z,101380.38
2019-06-15T21:43:12.536Z,101383.34
2019-06-15T21:45:46.105Z,101378.48
2019-06-15T21:48:16.136Z,101379.85
2019-06-15T21:50:47.971Z,101379.98
2019-06-15T21:53:18.931Z,101388.80
2019-06-15T21:55:59.224Z,101393.77
2019-06-15T21:58:32.109Z,101391.30
2019-06-15T22:01:28.562Z,101400.47
2019-06-15T22:04:02.982Z,101401.59
2019-06-15T22:06:37.510Z,101408.41
2019-06-15T22:09:12.679Z,101407.41
2019-06-15T22:11:53.050Z,101404.45
2019-06-15T22:14:26.407Z,101395.53
2019-06-15T22:17:02.625Z,101398.86
2019-06-15T22:19:33.640Z,101405.94
2019-06-15T22:22:07.587Z,101406.53
2019-06-15T22:24:37.867Z,101412.86
2019-06-15T22:27:10.849Z,101415.44
2019-06-15T22:29:42.182Z,101417.19
2019-06-15T22:32:16.467Z,101416.94
2019-06-15T22:34:47.066Z,101420.28
2019-06-15T22:37:19.138Z,101438.36
2019-06-15T22:39:51.046Z,101440.11
2019-06-15T22:42:21.927Z,101438.62
2019-06-15T22:45:03.083Z,101443.68
2019-06-15T22:47:36.156Z,101442.31
2019-06-15T22:50:08.765Z,101444.55
2019-06-15T22:52:47.868Z,101447.51
2019-06-15T22:55:18.748Z,101446.47
2019-06-15T22:57:56.769Z,101453.53
2019-06-15T23:00:27.607Z,101453.76
2019-06-15T23:02:58.577Z,101449.80
2019-06-15T23:05:29.584Z,101446.69
2019-06-15T23:08:02.471Z,101463.73
2019-06-15T23:10:36.811Z,101464.25
2019-06-15T23:13:07.757Z,101469.18
2019-06-15T23:15:38.707Z,101465.27
2019-06-15T23:18:09.586Z,101465.48
2019-06-15T23:20:46.364Z,101461.17
2019-06-15T23:23:18.548Z,101469.35
2019-06-15T23:25:49.580Z,101472.09
2019-06-15T23:28:32.810Z,101475.42
2019-06-15T23:31:07.332Z,101475.97
2019-06-15T23:33:37.338Z,101484.03
2019-06-15T23:36:11.033Z,101480.81
2019-06-15T23:38:48.792Z,101480.81
2019-06-15T23:41:19.794Z,101475.71
2019-06-15T23:43:55.831Z,101471.63
2019-06-15T23:46:31.448Z,101474.74
2019-06-15T23:49:02.367Z,101472.62
2019-06-15T23:51:33.326Z,101469.30
2019-06-15T23:54:04.253Z,101467.45
2019-06-15T23:56:39.395Z,101469.78
2019-06-15T23:59:10.242Z,101467.32
